sensor_id;sensor_type;location;lat;lon;timestamp;pressure;altitude;pressure_sealevel;temperature;humidity
64668;BME280;51077;42.716;23.344;2023-07-16T00:01:42;95589.56;;;26.22;55.95
64668;BME280;51077;42.716;23.344;2023-07-16T00:04:07;95591.63;;;26.22;55.91
64668;BME280;51077;42.716;23.344;2023-07-16T00:06:33;95588.69;;;26.20;56.06
64668;BME280;51077;42.716;23.344;2023-07-16T00:08:59;95592.84;;;26.19;56.01
64668;BME280;51077;42.716;23.344;2023-07-16T00:11:24;95588.56;;;26.18;56.05
64668;BME280;51077;42.716;23.344;2023-07-16T00:13:50;95585.63;;;26.16;56.09
64668;BME280;51077;42.716;23.344;2023-07-16T00:16:15;95586.97;;;26.15;56.01
64668;BME280;51077;42.716;23.344;2023-07-16T00:18:47;95588.44;;;26.16;55.61
64668;BME280;51077;42.716;23.344;2023-07-16T00:21:12;95584.06;;;26.13;55.91
64668;BME280;51077;42.716;23.344;2023-07-16T00:23:38;95578.41;;;26.13;55.86
64668;BME280;51077;42.716;23.344;2023-07-16T00:26:03;95576.94;;;26.12;55.42
64668;BME280;51077;42.716;23.344;2023-07-16T00:28:29;95585.38;;;26.12;55.39
64668;BME280;51077;42.716;23.344;2023-07-16T00:30:55;95579.63;;;26.10;55.86
64668;BME280;51077;42.716;23.344;2023-07-16T00:33:20;95587.94;;;26.07;55.23
64668;BME280;51077;42.716;23.344;2023-07-16T00:35:49;95582.31;;;26.07;55.35
64668;BME280;51077;42.716;23.344;2023-07-16T00:38:19;95589.28;;;26.06;55.47
64668;BME280;51077;42.716;23.344;2023-07-16T00:40:48;95585.75;;;26.06;55.13
64668;BME280;51077;42.716;23.344;2023-07-16T00:43:14;95582.81;;;26.04;55.54
64668;BME280;51077;42.716;23.344;2023-07-16T00:45:40;95580.72;;;26.04;55.41
64668;BME280;51077;42.716;23.344;2023-07-16T00:48:07;95593.19;;;26.01;55.15
64668;BME280;51077;42.716;23.344;2023-07-16T00:50:34;95572.03;;;26.00;54.97
64668;BME280;51077;42.716;23.344;2023-07-16T00:53:05;95585.22;;;25.98;55.06
64668;BME280;51077;42.716;23.344;2023-07-16T00:55:31;95578.75;;;25.95;55.06
64668;BME280;51077;42.716;23.344;2023-07-16T00:58:02;95579.34;;;25.94;55.33
64668;BME280;51077;42.716;23.344;2023-07-16T01:00:31;95576.19;;;25.88;55.00
64668;BME280;51077;42.716;23.344;2023-07-16T01:02:56;95579.00;;;25.88;55.03
64668;BME280;51077;42.716;23.344;2023-07-16T01:05:24;95578.84;;;25.86;55.25
64668;BME280;51077;42.716;23.344;2023-07-16T01:08:00;95578.72;;;25.84;55.29
64668;BME280;51077;42.716;23.344;2023-07-16T01:10:27;95583.47;;;25.81;54.90
64668;BME280;51077;42.716;23.344;2023-07-16T01:12:54;95575.19;;;25.83;54.83
64668;BME280;51077;42.716;23.344;2023-07-16T01:15:21;95577.38;;;25.85;54.84
64668;BME280;51077;42.716;23.344;2023-07-16T01:17:46;95587.91;;;25.84;55.18
64668;BME280;51077;42.716;23.344;2023-07-16T01:20:11;95587.16;;;25.84;55.02
64668;BME280;51077;42.716;23.344;2023-07-16T01:28:49;95584.00;;;25.77;55.16
64668;BME280;51077;42.716;23.344;2023-07-16T01:31:18;95584.44;;;25.74;55.24
64668;BME280;51077;42.716;23.344;2023-07-16T01:33:45;95580.91;;;25.73;54.96
64668;BME280;51077;42.716;23.344;2023-07-16T01:36:11;95581.47;;;25.72;54.98
64668;BME280;51077;42.716;23.344;2023-07-16T01:38:38;95580.03;;;25.71;55.10
64668;BME280;51077;42.716;23.344;2023-07-16T01:41:04;95581.38;;;25.70;55.09
64668;BME280;51077;42.716;23.344;2023-07-16T01:43:29;95581.38;;;25.70;54.92
64668;BME280;51077;42.716;23.344;2023-07-16T01:45:54;95591.16;;;25.69;55.14
64668;BME280;51077;42.716;23.344;2023-07-16T01:50:51;95581.69;;;25.64;55.35
64668;BME280;51077;42.716;23.344;2023-07-16T01:53:16;95595.03;;;25.64;55.41
64668;BME280;51077;42.716;23.344;2023-07-16T01:55:42;95583.66;;;25.62;55.34
64668;BME280;51077;42.716;23.344;2023-07-16T01:58:07;95587.81;;;25.61;55.25
64668;BME280;51077;42.716;23.344;2023-07-16T02:00:35;95586.34;;;25.60;55.13
64668;BME280;51077;42.716;23.344;2023-07-16T02:03:00;95582.69;;;25.57;55.50
64668;BME280;51077;42.716;23.344;2023-07-16T02:05:26;95597.31;;;25.55;55.28
64668;BME280;51077;42.716;23.344;2023-07-16T02:07:51;95581.69;;;25.52;55.57
64668;BME280;51077;42.716;23.344;2023-07-16T02:10:17;95583.75;;;25.52;55.37
64668;BME280;51077;42.716;23.344;2023-07-16T02:12:42;95583.63;;;25.50;55.38
64668;BME280;51077;42.716;23.344;2023-07-16T02:15:08;95582.16;;;25.49;55.22
64668;BME280;51077;42.716;23.344;2023-07-16T02:17:33;95579.22;;;25.47;55.38
64668;BME280;51077;42.716;23.344;2023-07-16T02:19:59;95581.88;;;25.45;55.46
64668;BME280;51077;42.716;23.344;2023-07-16T02:22:24;95583.81;;;25.42;55.69
64668;BME280;51077;42.716;23.344;2023-07-16T02:24:50;95586.53;;;25.40;55.75
64668;BME280;51077;42.716;23.344;2023-07-16T02:27:15;95589.44;;;25.42;55.58
64668;BME280;51077;42.716;23.344;2023-07-16T02:29:40;95584.44;;;25.41;55.62
64668;BME280;51077;42.716;23.344;2023-07-16T02:32:06;95589.22;;;25.38;55.57
64668;BME280;51077;42.716;23.344;2023-07-16T02:34:32;95601.78;;;25.37;55.77
64668;BME280;51077;42.716;23.344;2023-07-16T02:36:57;95597.50;;;25.36;55.48
64668;BME280;51077;42.716;23.344;2023-07-16T02:39:23;95588.81;;;25.32;55.60
64668;BME280;51077;42.716;23.344;2023-07-16T02:41:49;95592.34;;;25.32;55.86
64668;BME280;51077;42.716;23.344;2023-07-16T02:44:14;95591.63;;;25.32;55.92
64668;BME280;51077;42.716;23.344;2023-07-16T02:46:40;95597.13;;;25.30;55.93
64668;BME280;51077;42.716;23.344;2023-07-16T02:49:06;95592.09;;;25.28;55.89
64668;BME280;51077;42.716;23.344;2023-07-16T02:51:32;95587.69;;;25.25;56.21
64668;BME280;51077;42.716;23.344;2023-07-16T02:53:57;95588.16;;;25.22;56.37
64668;BME280;51077;42.716;23.344;2023-07-16T02:56:23;95588.63;;;25.18;56.08
64668;BME280;51077;42.716;23.344;2023-07-16T02:58:48;95598.97;;;25.16;56.30
64668;BME280;51077;42.716;23.344;2023-07-16T03:01:13;95592.50;;;25.13;56.56
64668;BME280;51077;42.716;23.344;2023-07-16T03:03:39;95603.47;;;25.09;56.72
64668;BME280;51077;42.716;23.344;2023-07-16T03:06:04;95606.13;;;25.07;56.77
64668;BME280;51077;42.716;23.344;2023-07-16T03:08:30;95603.78;;;25.03;56.79
64668;BME280;51077;42.716;23.344;2023-07-16T03:10:57;95608.38;;;24.99;56.83
64668;BME280;51077;42.716;23.344;2023-07-16T03:13:22;95601.19;;;24.96;57.20
64668;BME280;51077;42.716;23.344;2023-07-16T03:15:47;95608.13;;;24.95;57.08
64668;BME280;51077;42.716;23.344;2023-07-16T03:18:13;95607.25;;;24.92;57.09
64668;BME280;51077;42.716;23.344;2023-07-16T03:20:38;95602.84;;;24.89;57.08
64668;BME280;51077;42.716;23.344;2023-07-16T03:23:04;95608.91;;;24.86;57.36
64668;BME280;51077;42.716;23.344;2023-07-16T03:25:29;95608.78;;;24.83;57.53
64668;BME280;51077;42.716;23.344;2023-07-16T03:27:55;95608.66;;;24.81;57.17
64668;BME280;51077;42.716;23.344;2023-07-16T03:30:20;95608.66;;;24.81;57.25
64668;BME280;51077;42.716;23.344;2023-07-16T03:32:46;95608.66;;;24.81;57.37
64668;BME280;51077;42.716;23.344;2023-07-16T03:35:11;95619.00;;;24.79;57.45
64668;BME280;51077;42.716;23.344;2023-07-16T03:37:36;95613.25;;;24.77;57.58
64668;BME280;51077;42.716;23.344;2023-07-16T03:40:16;95623.00;;;24.76;57.73
64668;BME280;51077;42.716;23.344;2023-07-16T03:42:42;95615.94;;;24.75;57.40
64668;BME280;51077;42.716;23.344;2023-07-16T03:45:09;95629.84;;;24.73;57.56
64668;BME280;51077;42.716;23.344;2023-07-16T03:47:35;95622.88;;;24.74;57.63
64668;BME280;51077;42.716;23.344;2023-07-16T03:50:00;95628.34;;;24.72;57.64
64668;BME280;51077;42.716;23.344;2023-07-16T03:52:25;95622.00;;;24.71;57.48
64668;BME280;51077;42.716;23.344;2023-07-16T03:54:52;95621.28;;;24.71;57.46
64668;BME280;51077;42.716;23.344;2023-07-16T03:57:17;95627.03;;;24.73;57.28
64668;BME280;51077;42.716;23.344;2023-07-16T03:59:43;95624.22;;;24.73;57.35
64668;BME280;51077;42.716;23.344;2023-07-16T04:02:08;95630.69;;;24.75;57.45
64668;BME280;51077;42.716;23.344;2023-07-16T04:04:34;95628.78;;;24.78;57.22
64668;BME280;51077;42.716;23.344;2023-07-16T04:06:59;95629.63;;;24.80;57.03
64668;BME280;51077;42.716;23.344;2023-07-16T04:09:25;95622.72;;;24.81;57.17
64668;BME280;51077;42.716;23.344;2023-07-16T04:11:50;95633.59;;;24.87;57.07
64668;BME280;51077;42.716;23.344;2023-07-16T04:14:16;95628.25;;;24.91;56.98
64668;BME280;51077;42.716;23.344;2023-07-16T04:16:41;95633.53;;;24.97;56.52
64668;BME280;51077;42.716;23.344;2023-07-16T04:19:08;95628.81;;;24.99;56.77
64668;BME280;51077;42.716;23.344;2023-07-16T04:21:34;95641.78;;;25.04;56.56
64668;BME280;51077;42.716;23.344;2023-07-16T04:24:00;95637.00;;;25.07;56.34
64668;BME280;51077;42.716;23.344;2023-07-16T04:26:25;95647.22;;;25.12;56.41
64668;BME280;51077;42.716;23.344;2023-07-16T04:28:50;95645.88;;;25.13;56.07
64668;BME280;51077;42.716;23.344;2023-07-16T04:31:16;95646.72;;;25.16;56.12
64668;BME280;51077;42.716;23.344;2023-07-16T04:33:41;95643.59;;;25.21;56.05
64668;BME280;51077;42.716;23.344;2023-07-16T04:36:06;95643.72;;;25.23;55.74
64668;BME280;51077;42.716;23.344;2023-07-16T04:38:32;95650.81;;;25.24;55.80
64668;BME280;51077;42.716;23.344;2023-07-16T04:40:57;95649.63;;;25.27;55.70
64668;BME280;51077;42.716;23.344;2023-07-16T04:43:23;95658.31;;;25.31;55.83
64668;BME280;51077;42.716;23.344;2023-07-16T04:45:48;95656.97;;;25.32;55.61
64668;BME280;51077;42.716;23.344;2023-07-16T04:48:13;95659.31;;;25.36;55.81
64668;BME280;51077;42.716;23.344;2023-07-16T04:50:39;95655.56;;;25.43;55.46
64668;BME280;51077;42.716;23.344;2023-07-16T04:53:04;95655.97;;;25.49;55.52
64668;BME280;51077;42.716;23.344;2023-07-16T04:55:35;95655.03;;;25.56;55.17
64668;BME280;51077;42.716;23.344;2023-07-16T04:58:01;95656.00;;;25.61;55.02
64668;BME280;51077;42.716;23.344;2023-07-16T05:00:26;95648.69;;;25.68;54.99
64668;BME280;51077;42.716;23.344;2023-07-16T05:02:52;95663.88;;;25.74;54.78
64668;BME280;51077;42.716;23.344;2023-07-16T05:05:17;95662.09;;;25.79;54.67
64668;BME280;51077;42.716;23.344;2023-07-16T05:07:42;95659.66;;;25.85;54.50
64668;BME280;51077;42.716;23.344;2023-07-16T05:10:08;95665.69;;;25.91;54.43
64668;BME280;51077;42.716;23.344;2023-07-16T05:12:34;95661.91;;;25.98;54.18
64668;BME280;51077;42.716;23.344;2023-07-16T05:14:59;95660.09;;;26.03;54.12
64668;BME280;51077;42.716;23.344;2023-07-16T05:17:25;95660.47;;;26.09;53.95
64668;BME280;51077;42.716;23.344;2023-07-16T05:19:50;95662.31;;;26.16;53.76
64668;BME280;51077;42.716;23.344;2023-07-16T05:22:15;95657.81;;;26.23;53.73
64668;BME280;51077;42.716;23.344;2023-07-16T05:24:41;95661.00;;;26.29;53.38
64668;BME280;51077;42.716;23.344;2023-07-16T05:27:06;95670.56;;;26.36;53.50
64668;BME280;51077;42.716;23.344;2023-07-16T05:29:32;95663.22;;;26.42;53.15
64668;BME280;51077;42.716;23.344;2023-07-16T05:31:57;95667.78;;;26.47;53.23
64668;BME280;51077;42.716;23.344;2023-07-16T05:34:22;95669.50;;;26.52;52.80
64668;BME280;51077;42.716;23.344;2023-07-16T05:36:48;95673.41;;;26.59;52.79
64668;BME280;51077;42.716;23.344;2023-07-16T05:39:13;95670.25;;;26.65;52.81
64668;BME280;51077;42.716;23.344;2023-07-16T05:41:39;95673.31;;;26.69;52.67
64668;BME280;51077;42.716;23.344;2023-07-16T05:44:05;95674.41;;;26.75;52.58
64668;BME280;51077;42.716;23.344;2023-07-16T05:46:31;95667.66;;;26.80;52.27
64668;BME280;51077;42.716;23.344;2023-07-16T05:48:56;95669.50;;;26.88;52.02
64668;BME280;51077;42.716;23.344;2023-07-16T05:51:21;95673.41;;;26.94;51.90
64668;BME280;51077;42.716;23.344;2023-07-16T05:53:47;95678.06;;;27.01;51.43
64668;BME280;51077;42.716;23.344;2023-07-16T05:56:12;95677.22;;;27.11;51.23
64668;BME280;51077;42.716;23.344;2023-07-16T05:58:40;95676.09;;;27.16;51.18
64668;BME280;51077;42.716;23.344;2023-07-16T06:01:05;95682.97;;;27.24;51.06
64668;BME280;51077;42.716;23.344;2023-07-16T06:03:30;95680.75;;;27.35;50.77
64668;BME280;51077;42.716;23.344;2023-07-16T06:05:56;95682.69;;;27.44;50.81
64668;BME280;51077;42.716;23.344;2023-07-16T06:08:21;95683.88;;;27.52;50.53
64668;BME280;51077;42.716;23.344;2023-07-16T06:10:47;95680.78;;;27.60;49.97
64668;BME280;51077;42.716;23.344;2023-07-16T06:13:13;95681.97;;;27.69;49.61
64668;BME280;51077;42.716;23.344;2023-07-16T06:15:38;95677.34;;;27.73;49.73
64668;BME280;51077;42.716;23.344;2023-07-16T06:18:03;95684.78;;;27.80;49.68
64668;BME280;51077;42.716;23.344;2023-07-16T06:20:29;95687.44;;;27.90;49.38
64668;BME280;51077;42.716;23.344;2023-07-16T06:22:54;95679.34;;;27.96;49.17
64668;BME280;51077;42.716;23.344;2023-07-16T06:25:20;95682.47;;;28.02;49.22
64668;BME280;51077;42.716;23.344;2023-07-16T06:27:45;95678.00;;;28.11;48.12
64668;BME280;51077;42.716;23.344;2023-07-16T06:30:10;95667.06;;;28.17;48.53
64668;BME280;51077;42.716;23.344;2023-07-16T06:32:36;95676.72;;;28.26;48.03
64668;BME280;51077;42.716;23.344;2023-07-16T06:35:01;95674.22;;;28.32;47.87
64668;BME280;51077;42.716;23.344;2023-07-16T06:37:27;95667.59;;;28.39;47.89
64668;BME280;51077;42.716;23.344;2023-07-16T06:39:52;95667.81;;;28.43;47.64
64668;BME280;51077;42.716;23.344;2023-07-16T06:42:17;95662.56;;;28.51;47.40
64668;BME280;51077;42.716;23.344;2023-07-16T06:44:43;95664.28;;;28.57;46.97
64668;BME280;51077;42.716;23.344;2023-07-16T06:47:08;95668.88;;;28.64;46.76
64668;BME280;51077;42.716;23.344;2023-07-16T06:49:34;95667.84;;;28.71;46.70
64668;BME280;51077;42.716;23.344;2023-07-16T06:52:02;95660.53;;;28.79;46.71
64668;BME280;51077;42.716;23.344;2023-07-16T06:54:28;95667.22;;;28.86;46.50
64668;BME280;51077;42.716;23.344;2023-07-16T06:56:54;95660.53;;;28.93;46.36
64668;BME280;51077;42.716;23.344;2023-07-16T06:59:19;95666.72;;;29.03;46.21
64668;BME280;51077;42.716;23.344;2023-07-16T07:01:44;95660.88;;;29.13;45.85
64668;BME280;51077;42.716;23.344;2023-07-16T07:04:10;95662.75;;;29.22;45.65
64668;BME280;51077;42.716;23.344;2023-07-16T07:06:35;95665.34;;;29.32;45.57
64668;BME280;51077;42.716;23.344;2023-07-16T07:09:01;95658.72;;;29.41;45.17
64668;BME280;51077;42.716;23.344;2023-07-16T07:11:26;95663.41;;;29.50;45.01
64668;BME280;51077;42.716;23.344;2023-07-16T07:13:52;95654.84;;;29.62;44.70
64668;BME280;51077;42.716;23.344;2023-07-16T07:16:18;95663.06;;;29.72;44.32
64668;BME280;51077;42.716;23.344;2023-07-16T07:18:43;95662.94;;;29.84;44.29
64668;BME280;51077;42.716;23.344;2023-07-16T07:21:09;95659.84;;;29.93;44.01
64668;BME280;51077;42.716;23.344;2023-07-16T07:23:34;95663.81;;;30.02;43.51
64668;BME280;51077;42.716;23.344;2023-07-16T07:25:59;95660.09;;;30.13;43.71
64668;BME280;51077;42.716;23.344;2023-07-16T07:28:25;95661.50;;;30.28;43.15
64668;BME280;51077;42.716;23.344;2023-07-16T07:30:50;95657.69;;;30.37;42.84
64668;BME280;51077;42.716;23.344;2023-07-16T07:33:16;95662.53;;;30.50;42.38
64668;BME280;51077;42.716;23.344;2023-07-16T07:35:41;95663.94;;;30.65;42.44
64668;BME280;51077;42.716;23.344;2023-07-16T07:38:07;95665.19;;;30.78;42.12
64668;BME280;51077;42.716;23.344;2023-07-16T07:40:32;95662.84;;;30.88;41.59
64668;BME280;51077;42.716;23.344;2023-07-16T07:42:58;95655.50;;;30.99;41.83
64668;BME280;51077;42.716;23.344;2023-07-16T07:45:24;95661.03;;;31.13;41.31
64668;BME280;51077;42.716;23.344;2023-07-16T07:47:49;95654.72;;;31.30;40.92
64668;BME280;51077;42.716;23.344;2023-07-16T07:50:15;95658.97;;;31.47;40.62
64668;BME280;51077;42.716;23.344;2023-07-16T07:52:40;95660.31;;;31.62;40.50
64668;BME280;51077;42.716;23.344;2023-07-16T07:55:06;95654.22;;;31.69;39.86
64668;BME280;51077;42.716;23.344;2023-07-16T07:57:32;95649.16;;;31.84;39.81
64668;BME280;51077;42.716;23.344;2023-07-16T07:59:57;95653.28;;;31.98;39.58
64668;BME280;51077;42.716;23.344;2023-07-16T08:02:26;95646.19;;;32.17;39.22
64668;BME280;51077;42.716;23.344;2023-07-16T08:04:55;95648.94;;;32.33;38.78
64668;BME280;51077;42.716;23.344;2023-07-16T08:07:23;95665.66;;;32.43;38.85
64668;BME280;51077;42.716;23.344;2023-07-16T08:09:49;95655.84;;;32.46;38.78
64668;BME280;51077;42.716;23.344;2023-07-16T08:12:14;95651.19;;;32.55;38.64
64668;BME280;51077;42.716;23.344;2023-07-16T08:14:40;95650.41;;;32.72;38.41
64668;BME280;51077;42.716;23.344;2023-07-16T08:17:07;95652.47;;;32.89;37.89
64668;BME280;51077;42.716;23.344;2023-07-16T08:19:33;95645.25;;;33.06;37.95
64668;BME280;51077;42.716;23.344;2023-07-16T08:21:58;95651.25;;;33.14;37.32
64668;BME280;51077;42.716;23.344;2023-07-16T08:24:27;95657.50;;;33.31;37.37
64668;BME280;51077;42.716;23.344;2023-07-16T08:26:52;95644.06;;;33.33;37.29
64668;BME280;51077;42.716;23.344;2023-07-16T08:29:18;95636.81;;;33.50;36.95
64668;BME280;51077;42.716;23.344;2023-07-16T08:31:43;95642.38;;;33.68;36.77
64668;BME280;51077;42.716;23.344;2023-07-16T08:34:08;95641.94;;;33.75;36.77
64668;BME280;51077;42.716;23.344;2023-07-16T08:36:35;95642.97;;;33.86;36.78
64668;BME280;51077;42.716;23.344;2023-07-16T08:39:01;95644.94;;;34.01;36.46
64668;BME280;51077;42.716;23.344;2023-07-16T08:41:26;95648.09;;;34.12;35.80
64668;BME280;51077;42.716;23.344;2023-07-16T08:43:53;95645.47;;;34.20;36.07
64668;BME280;51077;42.716;23.344;2023-07-16T08:46:18;95652.84;;;34.27;35.94
64668;BME280;51077;42.716;23.344;2023-07-16T08:48:48;95640.34;;;34.38;35.55
64668;BME280;51077;42.716;23.344;2023-07-16T08:51:16;95643.66;;;34.53;35.33
64668;BME280;51077;42.716;23.344;2023-07-16T08:53:42;95634.66;;;34.62;35.30
64668;BME280;51077;42.716;23.344;2023-07-16T08:56:09;95632.66;;;34.67;35.02
64668;BME280;51077;42.716;23.344;2023-07-16T08:58:35;95635.09;;;34.79;35.11
64668;BME280;51077;42.716;23.344;2023-07-16T09:01:02;95637.53;;;34.88;34.57
64668;BME280;51077;42.716;23.344;2023-07-16T09:03:28;95636.50;;;35.02;34.33
64668;BME280;51077;42.716;23.344;2023-07-16T09:05:54;95635.47;;;35.17;34.29
64668;BME280;51077;42.716;23.344;2023-07-16T09:08:20;95638.91;;;35.39;34.16
64668;BME280;51077;42.716;23.344;2023-07-16T09:10:54;95636.88;;;35.44;33.98
64668;BME280;51077;42.716;23.344;2023-07-16T09:13:19;95626.34;;;35.48;34.17
64668;BME280;51077;42.716;23.344;2023-07-16T09:15:51;95625.75;;;35.54;34.04
64668;BME280;51077;42.716;23.344;2023-07-16T09:18:20;95625.16;;;35.58;33.47
64668;BME280;51077;42.716;23.344;2023-07-16T09:20:46;95616.84;;;35.70;33.25
64668;BME280;51077;42.716;23.344;2023-07-16T09:23:11;95617.00;;;35.76;33.54
64668;BME280;51077;42.716;23.344;2023-07-16T09:25:37;95616.34;;;35.78;33.86
64668;BME280;51077;42.716;23.344;2023-07-16T09:28:04;95611.63;;;35.90;33.54
64668;BME280;51077;42.716;23.344;2023-07-16T09:30:31;95614.03;;;36.00;33.32
64668;BME280;51077;42.716;23.344;2023-07-16T09:33:13;95614.84;;;36.05;32.99
64668;BME280;51077;42.716;23.344;2023-07-16T09:35:39;95619.41;;;36.18;32.66
64668;BME280;51077;42.716;23.344;2023-07-16T09:38:04;95615.81;;;36.15;32.84
64668;BME280;51077;42.716;23.344;2023-07-16T09:40:31;95610.41;;;36.30;32.92
64668;BME280;51077;42.716;23.344;2023-07-16T09:42:57;95604.34;;;36.45;33.16
64668;BME280;51077;42.716;23.344;2023-07-16T09:45:22;95613.25;;;36.62;32.07
64668;BME280;51077;42.716;23.344;2023-07-16T09:47:48;95605.56;;;36.70;32.32
64668;BME280;51077;42.716;23.344;2023-07-16T09:50:13;95602.28;;;36.84;32.00
64668;BME280;51077;42.716;23.344;2023-07-16T09:52:39;95601.78;;;36.96;31.88
64668;BME280;51077;42.716;23.344;2023-07-16T09:55:07;95606.31;;;37.07;31.11
64668;BME280;51077;42.716;23.344;2023-07-16T09:57:38;95600.41;;;36.97;31.88
64668;BME280;51077;42.716;23.344;2023-07-16T10:00:09;95599.06;;;37.02;31.11
64668;BME280;51077;42.716;23.344;2023-07-16T10:02:41;95587.13;;;37.16;31.77
64668;BME280;51077;42.716;23.344;2023-07-16T10:05:23;95593.00;;;37.24;31.32
64668;BME280;51077;42.716;23.344;2023-07-16T10:07:52;95591.75;;;37.33;31.03
64668;BME280;51077;42.716;23.344;2023-07-16T10:10:17;95593.16;;;37.32;31.01
64668;BME280;51077;42.716;23.344;2023-07-16T10:12:54;95580.47;;;37.43;31.26
64668;BME280;51077;42.716;23.344;2023-07-16T10:15:27;95581.38;;;37.54;30.62
64668;BME280;51077;42.716;23.344;2023-07-16T10:17:53;95578.44;;;37.50;31.02
64668;BME280;51077;42.716;23.344;2023-07-16T10:20:37;95583.53;;;37.54;30.44
64668;BME280;51077;42.716;23.344;2023-07-16T10:23:13;95576.03;;;37.79;30.89
64668;BME280;51077;42.716;23.344;2023-07-16T10:25:39;95572.69;;;37.92;30.35
64668;BME280;51077;42.716;23.344;2023-07-16T10:28:04;95563.28;;;37.86;30.46
64668;BME280;51077;42.716;23.344;2023-07-16T10:30:31;95562.81;;;38.04;30.30
64668;BME280;51077;42.716;23.344;2023-07-16T10:32:56;95570.88;;;38.15;30.50
64668;BME280;51077;42.716;23.344;2023-07-16T10:35:22;95567.56;;;38.35;29.61
64668;BME280;51077;42.716;23.344;2023-07-16T10:37:47;95574.91;;;38.48;29.47
64668;BME280;51077;42.716;23.344;2023-07-16T10:40:13;95565.53;;;38.44;29.36
64668;BME280;51077;42.716;23.344;2023-07-16T10:42:43;95566.38;;;38.55;29.00
64668;BME280;51077;42.716;23.344;2023-07-16T10:45:09;95567.03;;;38.49;29.09
64668;BME280;51077;42.716;23.344;2023-07-16T10:47:37;95568.47;;;38.50;29.11
64668;BME280;51077;42.716;23.344;2023-07-16T10:50:07;95567.81;;;38.54;29.21
64668;BME280;51077;42.716;23.344;2023-07-16T10:52:34;95558.56;;;38.59;29.02
64668;BME280;51077;42.716;23.344;2023-07-16T10:54:59;95561.03;;;38.87;28.69
64668;BME280;51077;42.716;23.344;2023-07-16T10:57:25;95555.41;;;38.97;28.63
64668;BME280;51077;42.716;23.344;2023-07-16T10:59:52;95551.91;;;39.07;28.45
64668;BME280;51077;42.716;23.344;2023-07-16T11:02:20;95552.66;;;39.10;28.29
64668;BME280;51077;42.716;23.344;2023-07-16T11:04:47;95551.31;;;39.19;28.47
64668;BME280;51077;42.716;23.344;2023-07-16T11:07:13;95542.81;;;39.29;28.34
64668;BME280;51077;42.716;23.344;2023-07-16T11:09:44;95540.75;;;39.40;28.44
64668;BME280;51077;42.716;23.344;2023-07-16T11:12:14;95544.41;;;39.46;28.07
64668;BME280;51077;42.716;23.344;2023-07-16T11:14:49;95541.59;;;39.55;27.80
64668;BME280;51077;42.716;23.344;2023-07-16T11:17:14;95532.41;;;39.75;28.06
64668;BME280;51077;42.716;23.344;2023-07-16T11:19:44;95533.16;;;39.79;27.66
64668;BME280;51077;42.716;23.344;2023-07-16T11:22:09;95528.91;;;39.86;27.67
64668;BME280;51077;42.716;23.344;2023-07-16T11:24:39;95533.19;;;39.83;27.42
64668;BME280;51077;42.716;23.344;2023-07-16T11:27:06;95531.09;;;39.96;27.72
64668;BME280;51077;42.716;23.344;2023-07-16T11:29:37;95521.81;;;40.04;27.47
64668;BME280;51077;42.716;23.344;2023-07-16T11:32:03;95525.44;;;40.06;27.14
64668;BME280;51077;42.716;23.344;2023-07-16T11:34:29;95520.53;;;40.23;26.78
64668;BME280;51077;42.716;23.344;2023-07-16T11:36:54;95518.38;;;40.30;26.76
64668;BME280;51077;42.716;23.344;2023-07-16T11:39:20;95517.66;;;40.29;26.65
64668;BME280;51077;42.716;23.344;2023-07-16T11:41:58;95519.16;;;40.40;26.09
64668;BME280;51077;42.716;23.344;2023-07-16T11:44:23;95513.38;;;40.38;25.88
64668;BME280;51077;42.716;23.344;2023-07-16T11:46:50;95503.41;;;40.56;26.41
64668;BME280;51077;42.716;23.344;2023-07-16T11:49:15;95514.22;;;40.69;25.91
64668;BME280;51077;42.716;23.344;2023-07-16T11:51:41;95512.81;;;40.91;25.56
64668;BME280;51077;42.716;23.344;2023-07-16T11:54:09;95509.22;;;40.92;25.73
64668;BME280;51077;42.716;23.344;2023-07-16T11:56:35;95513.56;;;40.93;25.12
64668;BME280;51077;42.716;23.344;2023-07-16T11:59:01;95503.47;;;40.84;25.06
64668;BME280;51077;42.716;23.344;2023-07-16T12:01:27;95507.84;;;41.00;24.88
64668;BME280;51077;42.716;23.344;2023-07-16T12:03:52;95506.34;;;40.92;24.90
64668;BME280;51077;42.716;23.344;2023-07-16T12:06:17;95506.31;;;40.78;24.78
64668;BME280;51077;42.716;23.344;2023-07-16T12:08:43;95497.69;;;40.72;24.63
64668;BME280;51077;42.716;23.344;2023-07-16T12:11:08;95502.00;;;40.73;24.66
64668;BME280;51077;42.716;23.344;2023-07-16T12:13:34;95500.59;;;40.90;24.61
64668;BME280;51077;42.716;23.344;2023-07-16T12:15:59;95494.81;;;40.76;24.40
64668;BME280;51077;42.716;23.344;2023-07-16T12:18:25;95501.31;;;40.81;24.37
64668;BME280;51077;42.716;23.344;2023-07-16T12:20:50;95491.22;;;40.82;24.18
64668;BME280;51077;42.716;23.344;2023-07-16T12:23:15;95496.25;;;40.71;23.84
64668;BME280;51077;42.716;23.344;2023-07-16T12:25:41;95494.09;;;40.67;23.54
64668;BME280;51077;42.716;23.344;2023-07-16T12:28:08;95490.47;;;40.65;22.95
64668;BME280;51077;42.716;23.344;2023-07-16T12:30:34;95491.91;;;40.64;22.62
64668;BME280;51077;42.716;23.344;2023-07-16T12:32:59;95483.94;;;40.52;23.14
64668;BME280;51077;42.716;23.344;2023-07-16T12:35:25;95484.66;;;40.51;22.83
64668;BME280;51077;42.716;23.344;2023-07-16T12:37:50;95481.09;;;40.60;22.78
64668;BME280;51077;42.716;23.344;2023-07-16T12:40:16;95479.66;;;40.59;22.90
64668;BME280;51077;42.716;23.344;2023-07-16T12:42:42;95477.50;;;40.54;22.66
64668;BME280;51077;42.716;23.344;2023-07-16T12:45:08;95477.41;;;40.35;22.88
64668;BME280;51077;42.716;23.344;2023-07-16T12:47:33;95475.25;;;40.32;22.98
64668;BME280;51077;42.716;23.344;2023-07-16T12:49:59;95473.09;;;40.38;22.55
64668;BME280;51077;42.716;23.344;2023-07-16T12:52:24;95473.81;;;40.39;22.15
64668;BME280;51077;42.716;23.344;2023-07-16T12:54:49;95471.66;;;40.33;22.45